Time;durP1;ratioP1;P1;durP2;ratioP2;P2;SDS_P1;SDS_P2;PMS_P1;PMS_P2;Temp;Humidity;BMP_temperature;BMP_pressure;BME280_temperature;BME280_humidity;BME280_pressure;Samples;Min_cycle;Max_cycle;Signal;HPM_P1;HPM_P2
2022/09/07 00:03:26;;;;;;;5.07;4.50;;;22.00;38.30;;;;;;10550406;27;20284;-73
2022/09/07 00:08:30;;;;;;;4.90;4.50;;;22.00;38.30;;;;;;10547945;28;20229;-74
2022/09/07 00:13:37;;;;;;;5.03;4.50;;;21.90;38.20;;;;;;10554839;27;20310;-74
2022/09/07 00:18:40;;;;;;;5.73;4.37;;;21.80;38.10;;;;;;10555551;27;20231;-74
2022/09/07 00:23:49;;;;;;;4.97;4.40;;;21.80;38.10;;;;;;10556022;28;20227;-74
2022/09/07 00:28:57;;;;;;;5.67;4.67;;;21.70;38.00;;;;;;10550680;27;20229;-74
2022/09/07 00:34:01;;;;;;;4.40;4.00;;;21.60;39.10;;;;;;10552024;28;20569;-74
2022/09/07 00:39:05;;;;;;;4.77;4.30;;;21.60;38.00;;;;;;10551989;27;20261;-74
2022/09/07 00:44:51;;;;;;;4.50;4.10;;;21.60;38.30;;;;;;10555121;27;20235;-73
2022/09/07 00:49:58;;;;;;;4.50;4.10;;;21.60;38.90;;;;;;10544167;27;20233;-73
2022/09/07 00:55:06;;;;;;;4.40;4.00;;;21.60;38.80;;;;;;10554073;27;20262;-73
2022/09/07 01:00:11;;;;;;;4.73;4.23;;;21.50;38.70;;;;;;10549321;28;20239;-74
2022/09/07 01:05:21;;;;;;;5.43;4.03;;;21.50;38.60;;;;;;10550586;27;20229;-73
2022/09/07 01:10:29;;;;;;;3.90;3.50;;;21.40;39.10;;;;;;10550033;28;20305;-74
2022/09/07 01:15:43;;;;;;;4.47;4.07;;;21.40;38.40;;;;;;10553337;27;20246;-74
2022/09/07 01:20:58;;;;;;;5.03;4.23;;;21.40;39.60;;;;;;10554646;28;20284;-74
2022/09/07 01:26:30;;;;;;;4.27;3.80;;;21.40;39.60;;;;;;10550152;27;20627;-74
2022/09/07 01:31:42;;;;;;;8.33;4.67;;;21.30;39.50;;;;;;10549628;27;20219;-74
2022/09/07 01:36:55;;;;;;;4.87;4.47;;;21.30;40.10;;;;;;10551723;28;20227;-74
2022/09/07 01:42:04;;;;;;;4.70;4.20;;;21.30;40.30;;;;;;10549913;28;20246;-75
2022/09/07 01:47:13;;;;;;;4.70;4.03;;;21.30;40.10;;;;;;10549841;28;20222;-75
2022/09/07 01:52:21;;;;;;;4.13;3.80;;;21.30;40.40;;;;;;10552089;27;20233;-75
2022/09/07 01:57:28;;;;;;;4.03;3.60;;;21.30;39.70;;;;;;10547872;28;20227;-75
2022/09/07 02:02:38;;;;;;;4.17;3.83;;;21.20;40.40;;;;;;10548760;28;20737;-75
2022/09/07 02:07:46;;;;;;;4.60;4.20;;;21.20;40.60;;;;;;10548820;28;21105;-76
2022/09/07 02:12:58;;;;;;;4.60;4.20;;;21.30;40.60;;;;;;10545835;28;20231;-75
2022/09/07 02:18:05;;;;;;;4.27;3.97;;;21.20;40.80;;;;;;10548678;28;20220;-74
2022/09/07 02:23:14;;;;;;;4.53;4.10;;;21.20;41.00;;;;;;10550650;28;20223;-75
2022/09/07 02:28:22;;;;;;;4.93;4.10;;;21.20;41.00;;;;;;10551265;28;20219;-75
2022/09/07 02:33:27;;;;;;;5.53;4.40;;;21.10;40.90;;;;;;10550119;28;20231;-75
2022/09/07 02:38:30;;;;;;;4.00;3.60;;;21.10;41.00;;;;;;10546801;28;20231;-75
2022/09/07 02:43:34;;;;;;;5.33;3.33;;;21.00;40.40;;;;;;10551132;28;20241;-75
2022/09/07 02:48:46;;;;;;;4.93;4.10;;;21.00;40.60;;;;;;10541141;28;20227;-75
2022/09/07 02:54:05;;;;;;;4.83;3.97;;;21.00;42.00;;;;;;10549584;28;20223;-75
2022/09/07 02:59:20;;;;;;;4.63;4.17;;;21.00;41.90;;;;;;10557149;27;20211;-75
2022/09/07 03:04:36;;;;;;;5.83;3.83;;;21.00;41.80;;;;;;10559568;28;20230;-75
2022/09/07 03:09:44;;;;;;;5.97;3.60;;;21.00;42.10;;;;;;10555464;27;20752;-75
2022/09/07 03:14:47;;;;;;;4.10;3.70;;;21.10;41.60;;;;;;10556352;27;20230;-76
2022/09/07 03:19:52;;;;;;;5.33;3.80;;;21.10;41.00;;;;;;10556639;28;21177;-75
2022/09/07 03:24:55;;;;;;;4.80;4.13;;;21.20;41.60;;;;;;10561043;27;20238;-75
2022/09/07 03:29:58;;;;;;;6.03;5.10;;;21.20;41.10;;;;;;10559186;27;20310;-75
2022/09/07 03:35:06;;;;;;;4.90;4.40;;;21.10;41.10;;;;;;10561332;27;20768;-75
2022/09/07 03:40:11;;;;;;;4.53;4.13;;;21.00;42.00;;;;;;10551644;28;20222;-75
2022/09/07 03:45:15;;;;;;;5.30;4.83;;;21.00;41.80;;;;;;10559559;27;20226;-75
2022/09/07 03:50:20;;;;;;;3.93;3.63;;;21.00;41.60;;;;;;10560308;27;20233;-75
2022/09/07 03:55:23;;;;;;;6.93;4.77;;;21.00;42.00;;;;;;10557694;28;20905;-75
2022/09/07 04:00:26;;;;;;;5.90;4.63;;;21.00;41.70;;;;;;10553470;27;20726;-75
2022/09/07 04:05:32;;;;;;;8.03;5.00;;;21.10;42.00;;;;;;10552513;27;20314;-75
2022/09/07 04:10:38;;;;;;;5.07;4.43;;;21.10;42.90;;;;;;10557316;28;20223;-75
2022/09/07 04:15:41;;;;;;;5.27;4.27;;;21.10;42.70;;;;;;10557074;27;20235;-75
2022/09/07 04:20:45;;;;;;;6.43;4.53;;;21.00;42.00;;;;;;10560365;27;20235;-75
2022/09/07 04:25:49;;;;;;;6.40;4.40;;;21.00;42.80;;;;;;10551835;27;20273;-76
2022/09/07 04:30:52;;;;;;;5.90;4.30;;;21.00;42.30;;;;;;10551332;27;20227;-76
2022/09/07 04:35:59;;;;;;;5.53;4.00;;;21.00;42.20;;;;;;10558547;27;20300;-76
2022/09/07 04:41:05;;;;;;;4.37;4.00;;;21.00;43.30;;;;;;10554151;27;20614;-75
2022/09/07 04:46:13;;;;;;;4.33;3.93;;;20.90;42.90;;;;;;10556940;28;20247;-75
2022/09/07 04:51:20;;;;;;;6.67;4.07;;;20.90;43.40;;;;;;10557418;28;20231;-75
2022/09/07 04:56:24;;;;;;;4.97;4.30;;;20.90;43.50;;;;;;10552567;28;20227;-75
2022/09/07 05:01:27;;;;;;;6.47;4.80;;;20.90;43.10;;;;;;10553374;27;20227;-75
2022/09/07 05:06:32;;;;;;;6.77;4.50;;;20.90;43.20;;;;;;10551125;27;20230;-75
2022/09/07 05:11:35;;;;;;;6.30;4.60;;;20.90;44.00;;;;;;10556870;28;20223;-75
2022/09/07 05:16:39;;;;;;;5.43;4.60;;;20.90;43.50;;;;;;10551181;27;20227;-75
2022/09/07 05:21:43;;;;;;;5.80;4.40;;;20.90;43.60;;;;;;10549674;28;20254;-75
2022/09/07 05:26:47;;;;;;;7.20;4.60;;;20.90;44.30;;;;;;10552764;28;20238;-75
2022/09/07 05:31:50;;;;;;;7.73;4.87;;;21.00;43.90;;;;;;10549845;27;20238;-75
2022/09/07 05:36:55;;;;;;;6.27;5.07;;;21.00;44.20;;;;;;10554976;28;20219;-75
2022/09/07 05:41:58;;;;;;;6.23;4.40;;;21.00;44.70;;;;;;10552109;28;20692;-75
2022/09/07 05:47:01;;;;;;;5.57;4.80;;;21.00;44.10;;;;;;10550936;27;20246;-75
2022/09/07 05:52:06;;;;;;;5.53;4.60;;;21.10;44.40;;;;;;10549686;28;20214;-75
2022/09/07 05:57:11;;;;;;;5.20;4.73;;;21.10;45.10;;;;;;10548822;27;20227;-76
2022/09/07 06:02:15;;;;;;;5.60;5.03;;;21.20;45.30;;;;;;10551023;28;20226;-76
2022/09/07 06:07:20;;;;;;;6.43;5.40;;;21.20;44.90;;;;;;10552851;28;20225;-75
2022/09/07 06:12:24;;;;;;;5.53;4.93;;;21.30;45.60;;;;;;10553365;28;20949;-75
2022/09/07 06:17:28;;;;;;;7.20;5.27;;;21.40;45.10;;;;;;10553576;28;20215;-74
2022/09/07 06:22:35;;;;;;;9.27;4.70;;;21.40;45.30;;;;;;10548924;28;20234;-75
2022/09/07 06:27:38;;;;;;;7.07;5.20;;;21.40;46.20;;;;;;10552766;27;20226;-76
2022/09/07 06:32:41;;;;;;;4.93;4.43;;;21.50;45.50;;;;;;10546703;28;20235;-76
2022/09/07 06:37:47;;;;;;;7.00;4.80;;;21.50;45.30;;;;;;10549361;27;20254;-75
2022/09/07 06:42:50;;;;;;;5.63;5.13;;;21.50;46.40;;;;;;10544316;28;20227;-76
2022/09/07 06:47:54;;;;;;;5.30;4.80;;;21.50;45.70;;;;;;10551219;27;20218;-76
2022/09/07 06:52:59;;;;;;;5.87;4.70;;;21.40;45.80;;;;;;10552659;28;20719;-77
2022/09/07 06:58:23;;;;;;;5.33;4.23;;;21.60;46.70;;;;;;10538600;28;20238;-74
2022/09/07 07:03:28;;;;;;;7.87;4.93;;;21.70;46.00;;;;;;10537749;28;20233;-74
2022/09/07 07:08:33;;;;;;;5.50;4.60;;;21.70;46.30;;;;;;10537246;28;20219;-75
2022/09/07 07:13:37;;;;;;;6.30;4.73;;;21.80;47.20;;;;;;10538013;28;20754;-75
2022/09/07 07:18:40;;;;;;;5.67;4.20;;;21.90;46.60;;;;;;10541645;28;20229;-76
2022/09/07 07:23:49;;;;;;;5.97;3.90;;;21.90;46.60;;;;;;10539879;28;20238;-74
2022/09/07 07:28:54;;;;;;;6.00;4.00;;;22.10;47.50;;;;;;10547304;27;20219;-76
2022/09/07 07:34:02;;;;;;;6.33;3.97;;;22.10;47.10;;;;;;10543793;27;20306;-75
2022/09/07 07:39:07;;;;;;;5.13;3.50;;;22.20;46.50;;;;;;10547141;28;20222;-76
2022/09/07 07:44:30;;;;;;;5.30;3.60;;;22.20;47.00;;;;;;10564310;27;20310;-75
2022/09/07 07:49:33;;;;;;;6.23;3.63;;;22.30;46.50;;;;;;10562149;27;20219;-74
2022/09/07 07:54:38;;;;;;;4.97;3.33;;;22.30;46.50;;;;;;10558613;27;20634;-75
2022/09/07 07:59:43;;;;;;;4.50;3.20;;;22.30;46.90;;;;;;10562765;28;20310;-75
2022/09/07 08:04:46;;;;;;;6.83;3.27;;;22.30;46.50;;;;;;10562599;27;20867;-75
2022/09/07 08:09:51;;;;;;;7.13;3.40;;;22.40;46.60;;;;;;10567482;28;20227;-75
2022/09/07 08:14:54;;;;;;;5.73;3.27;;;22.40;47.20;;;;;;10568052;27;20227;-74
2022/09/07 08:19:58;;;;;;;4.97;3.37;;;22.50;46.90;;;;;;10559506;27;20287;-75
2022/09/07 08:25:02;;;;;;;6.03;3.30;;;22.50;46.70;;;;;;10563849;27;20772;-75
2022/09/07 08:30:07;;;;;;;3.80;2.73;;;22.60;47.20;;;;;;10562460;28;20639;-74
2022/09/07 08:35:10;;;;;;;3.10;2.40;;;22.70;47.30;;;;;;10569382;28;20234;-73
2022/09/07 08:40:17;;;;;;;5.63;2.43;;;22.80;47.10;;;;;;10564668;27;20227;-74
2022/09/07 08:45:27;;;;;;;3.10;1.90;;;23.00;47.60;;;;;;10556494;28;20527;-74
2022/09/07 08:50:35;;;;;;;2.40;2.10;;;23.20;46.50;;;;;;10559231;27;20700;-73
2022/09/07 08:55:40;;;;;;;3.30;2.00;;;23.30;46.30;;;;;;10557973;28;20264;-74
2022/09/07 09:00:44;;;;;;;3.93;2.23;;;23.50;46.10;;;;;;10562004;28;20234;-74
2022/09/07 09:05:56;;;;;;;3.03;2.00;;;23.60;46.20;;;;;;10568697;27;20235;-75
2022/09/07 09:11:09;;;;;;;4.10;2.03;;;23.80;46.90;;;;;;10557003;27;20215;-75
2022/09/07 09:16:20;;;;;;;2.30;2.10;;;24.00;46.70;;;;;;10561009;27;20258;-74
2022/09/07 09:21:23;;;;;;;3.53;2.40;;;24.40;46.40;;;;;;10561983;27;20237;-74
2022/09/07 09:26:30;;;;;;;4.83;2.30;;;24.70;46.10;;;;;;10566938;28;20234;-74
2022/09/07 09:31:35;;;;;;;3.90;2.30;;;25.00;45.90;;;;;;10564457;27;20227;-74
2022/09/07 09:36:45;;;;;;;3.47;2.30;;;25.30;45.10;;;;;;10565546;27;20250;-74
2022/09/07 09:41:50;;;;;;;1.90;1.80;;;25.60;44.80;;;;;;10560946;27;20718;-74
2022/09/07 09:46:53;;;;;;;2.97;2.30;;;25.90;44.10;;;;;;10563992;27;20272;-74
2022/09/07 09:52:20;;;;;;;2.20;2.00;;;26.20;43.30;;;;;;10568913;27;20280;-74
2022/09/07 09:57:50;;;;;;;4.10;2.30;;;26.60;42.30;;;;;;10558478;27;20229;-74
2022/09/07 10:03:18;;;;;;;2.70;2.13;;;26.90;42.20;;;;;;10561922;27;20306;-74
2022/09/07 10:08:55;;;;;;;3.47;2.30;;;27.10;40.70;;;;;;10558853;27;20295;-74
2022/09/07 10:14:00;;;;;;;3.83;2.40;;;27.10;41.10;;;;;;10562523;27;20648;-76
2022/09/07 10:19:03;;;;;;;4.23;2.40;;;27.10;40.80;;;;;;10559109;27;20675;-73
2022/09/07 10:24:15;;;;;;;2.50;2.30;;;27.20;41.40;;;;;;10563576;27;20230;-73
2022/09/07 10:29:27;;;;;;;4.93;2.30;;;27.30;40.10;;;;;;10555382;28;20215;-73
2022/09/07 10:34:37;;;;;;;3.23;2.53;;;27.40;40.00;;;;;;10557934;27;20265;-73
2022/09/07 10:39:42;;;;;;;6.50;2.40;;;27.50;39.70;;;;;;10560446;27;20223;-73
2022/09/07 10:45:00;;;;;;;4.30;2.57;;;27.60;40.10;;;;;;10560430;27;20231;-73
2022/09/07 10:50:08;;;;;;;2.63;2.40;;;27.70;39.80;;;;;;10561206;27;20238;-73
2022/09/07 10:55:32;;;;;;;2.57;2.20;;;27.80;40.10;;;;;;10559685;27;20226;-73
2022/09/07 11:00:47;;;;;;;2.97;2.07;;;27.90;39.30;;;;;;10560928;27;20234;-74
2022/09/07 11:06:05;;;;;;;3.30;2.07;;;28.10;38.70;;;;;;10555823;27;20231;-74
2022/09/07 11:11:19;;;;;;;3.87;1.97;;;28.20;38.70;;;;;;10557141;27;20214;-74
2022/09/07 11:16:50;;;;;;;1.93;1.77;;;28.30;37.90;;;;;;10565979;27;20314;-73
2022/09/07 11:22:04;;;;;;;3.77;2.10;;;28.40;37.40;;;;;;10570536;28;20253;-74
2022/09/07 11:27:12;;;;;;;3.27;2.03;;;28.50;37.40;;;;;;10566035;27;20226;-75
2022/09/07 11:32:22;;;;;;;2.60;2.00;;;28.60;36.00;;;;;;10567795;27;20280;-75
2022/09/07 11:37:30;;;;;;;3.50;2.20;;;28.70;35.10;;;;;;10570027;27;20223;-75
2022/09/07 11:42:37;;;;;;;3.03;2.10;;;28.70;36.80;;;;;;10565445;27;20647;-75
2022/09/07 11:47:53;;;;;;;2.70;2.10;;;28.80;36.70;;;;;;10568813;27;20244;-74
2022/09/07 11:53:01;;;;;;;4.07;1.97;;;28.90;35.90;;;;;;10560183;27;20234;-74
2022/09/07 11:58:33;;;;;;;4.70;2.07;;;29.00;35.60;;;;;;10567456;27;20226;-74
2022/09/07 12:04:15;;;;;;;3.80;2.00;;;29.20;35.50;;;;;;10566184;27;21230;-74
2022/09/07 12:09:35;;;;;;;5.00;2.00;;;29.30;36.20;;;;;;10534592;27;20223;-74
2022/09/07 12:14:49;;;;;;;2.00;1.80;;;29.40;34.70;;;;;;10564850;28;20234;-74
2022/09/07 12:20:13;;;;;;;2.60;1.90;;;29.50;34.30;;;;;;10565434;27;20223;-74
2022/09/07 12:25:18;;;;;;;4.10;1.80;;;29.60;35.10;;;;;;10565644;27;20321;-74
2022/09/07 12:30:54;;;;;;;2.53;1.77;;;29.70;34.00;;;;;;10564112;27;20603;-74
2022/09/07 12:35:59;;;;;;;4.57;1.90;;;29.70;34.00;;;;;;10561584;27;20227;-73
2022/09/07 12:41:04;;;;;;;3.20;2.00;;;29.70;33.50;;;;;;10564391;27;20219;-74
2022/09/07 12:46:18;;;;;;;3.07;2.07;;;29.70;34.00;;;;;;10570285;27;20222;-74
2022/09/07 12:51:34;;;;;;;2.57;2.17;;;29.70;33.00;;;;;;10571278;27;20314;-74
2022/09/07 12:57:00;;;;;;;3.17;2.30;;;29.80;33.40;;;;;;10562267;27;20973;-74
2022/09/07 13:02:54;;;;;;;3.47;2.30;;;29.80;33.10;;;;;;10560257;27;20313;-74
2022/09/07 13:08:27;;;;;;;3.13;1.90;;;29.90;32.90;;;;;;10563185;27;20253;-74
2022/09/07 13:13:31;;;;;;;4.27;2.10;;;29.90;33.20;;;;;;10563245;27;20268;-74
2022/09/07 13:18:54;;;;;;;4.83;2.47;;;30.00;32.80;;;;;;10557287;27;20219;-74
2022/09/07 13:24:33;;;;;;;4.23;2.00;;;30.00;32.20;;;;;;10554100;27;20223;-74
2022/09/07 13:29:55;;;;;;;3.33;2.50;;;30.00;32.30;;;;;;10541446;28;20268;-74
2022/09/07 13:35:12;;;;;;;4.87;2.60;;;30.10;31.60;;;;;;10559809;28;20692;-74
2022/09/07 13:40:22;;;;;;;3.70;2.70;;;30.00;30.10;;;;;;10556931;27;20687;-74
2022/09/07 13:45:32;;;;;;;3.77;2.20;;;30.10;30.40;;;;;;10561634;27;20639;-75
2022/09/07 13:50:44;;;;;;;2.23;1.83;;;30.20;30.80;;;;;;10563340;27;20226;-74
2022/09/07 13:55:56;;;;;;;2.50;1.93;;;30.20;30.40;;;;;;10559838;27;20284;-74
2022/09/07 14:01:02;;;;;;;3.40;2.10;;;30.30;29.80;;;;;;10557780;27;20272;-74
2022/09/07 14:06:33;;;;;;;2.10;1.90;;;30.30;30.10;;;;;;10559662;27;20587;-74
2022/09/07 14:11:43;;;;;;;4.13;2.20;;;30.30;30.10;;;;;;10530430;27;20681;-72
2022/09/07 14:16:49;;;;;;;2.53;2.00;;;30.30;29.40;;;;;;10565243;27;20283;-72
2022/09/07 14:21:58;;;;;;;2.07;1.97;;;30.30;30.00;;;;;;10564271;27;20223;-72
2022/09/07 14:27:04;;;;;;;2.23;2.03;;;30.30;29.50;;;;;;10564479;27;20223;-74
2022/09/07 14:32:13;;;;;;;3.20;1.80;;;30.40;29.30;;;;;;10557899;27;20226;-73
2022/09/07 14:37:19;;;;;;;3.13;1.80;;;30.50;29.30;;;;;;10559121;27;20272;-74
2022/09/07 14:42:25;;;;;;;2.53;1.80;;;30.50;29.60;;;;;;10558136;27;20306;-74
2022/09/07 14:47:32;;;;;;;3.53;2.50;;;30.60;29.20;;;;;;10556867;27;20703;-74
2022/09/07 14:52:38;;;;;;;2.43;2.00;;;30.60;29.10;;;;;;10557637;27;20242;-75
2022/09/07 14:58:24;;;;;;;1.93;1.73;;;30.70;29.10;;;;;;10560579;27;20298;-75
2022/09/07 15:03:30;;;;;;;2.43;1.60;;;30.70;28.80;;;;;;10567403;28;20238;-75
2022/09/07 15:08:39;;;;;;;2.00;1.70;;;30.70;28.60;;;;;;10567338;28;20219;-75
2022/09/07 15:13:45;;;;;;;2.43;1.80;;;30.70;27.70;;;;;;10565565;27;20253;-76
2022/09/07 15:18:54;;;;;;;2.67;1.60;;;30.70;27.70;;;;;;10561621;27;20231;-77
2022/09/07 15:23:59;;;;;;;2.50;2.00;;;30.70;27.50;;;;;;10565036;27;20237;-76
2022/09/07 15:29:03;;;;;;;2.53;1.80;;;30.80;27.70;;;;;;10568212;27;20238;-76
2022/09/07 15:34:12;;;;;;;2.50;1.83;;;30.70;27.50;;;;;;10565239;27;20223;-76
2022/09/07 15:39:17;;;;;;;2.30;1.70;;;30.70;27.70;;;;;;10566255;27;20223;-77
2022/09/07 15:44:22;;;;;;;2.43;2.10;;;30.70;27.30;;;;;;10561306;27;20264;-75
2022/09/07 15:49:29;;;;;;;2.90;1.83;;;30.70;27.40;;;;;;10558405;28;20268;-75
2022/09/07 15:54:33;;;;;;;2.00;1.80;;;30.60;28.00;;;;;;10564355;28;20335;-75
2022/09/07 15:59:42;;;;;;;2.67;1.90;;;30.60;27.60;;;;;;10561722;27;20230;-75
2022/09/07 16:04:45;;;;;;;2.13;1.90;;;30.70;27.50;;;;;;10562682;27;20231;-75
2022/09/07 16:09:48;;;;;;;2.10;1.90;;;30.70;27.50;;;;;;10565495;27;20229;-74
2022/09/07 16:14:56;;;;;;;3.33;1.90;;;30.60;27.30;;;;;;10555927;28;20816;-75
2022/09/07 16:19:59;;;;;;;1.63;1.53;;;30.60;27.00;;;;;;10559036;27;20230;-75
2022/09/07 16:25:04;;;;;;;2.00;1.80;;;30.60;27.20;;;;;;10561692;28;20222;-74
2022/09/07 16:30:10;;;;;;;2.07;1.63;;;30.50;27.30;;;;;;10558921;27;20222;-74
2022/09/07 16:35:13;;;;;;;2.00;1.80;;;30.40;26.70;;;;;;10563737;28;20282;-74
2022/09/07 16:40:16;;;;;;;2.10;1.90;;;30.30;27.20;;;;;;10561454;28;20218;-75
2022/09/07 16:45:21;;;;;;;2.10;2.00;;;30.20;27.50;;;;;;10561032;27;20251;-75
2022/09/07 16:50:53;;;;;;;2.07;1.87;;;30.20;27.50;;;;;;10560893;28;20280;-74
2022/09/07 16:56:05;;;;;;;2.67;1.97;;;30.10;27.20;;;;;;10558863;27;20250;-75
2022/09/07 17:01:12;;;;;;;3.57;2.20;;;30.10;27.70;;;;;;10560658;28;20227;-75
2022/09/07 17:06:16;;;;;;;2.90;2.10;;;30.00;27.70;;;;;;10557521;28;20292;-75
2022/09/07 17:11:21;;;;;;;2.20;2.00;;;30.00;27.90;;;;;;10560393;27;20227;-75
2022/09/07 17:16:28;;;;;;;2.10;1.90;;;29.90;28.10;;;;;;10559255;28;20634;-75
2022/09/07 17:21:32;;;;;;;3.53;2.10;;;29.80;28.30;;;;;;10561519;28;20215;-74
2022/09/07 17:26:36;;;;;;;2.90;1.90;;;29.80;28.50;;;;;;10547285;27;20232;-75
2022/09/07 17:31:40;;;;;;;3.90;2.00;;;29.70;28.50;;;;;;10543573;27;20284;-76
2022/09/07 17:37:04;;;;;;;2.80;1.90;;;29.60;28.50;;;;;;10547943;27;20333;-75
2022/09/07 17:42:07;;;;;;;2.10;1.90;;;29.40;28.70;;;;;;10546085;27;20230;-74
2022/09/07 17:47:13;;;;;;;2.17;1.70;;;29.30;28.70;;;;;;10549958;28;20295;-75
2022/09/07 17:52:16;;;;;;;3.70;2.00;;;29.10;28.90;;;;;;10548236;28;20227;-76
2022/09/07 17:57:19;;;;;;;3.33;3.03;;;28.90;28.90;;;;;;10548294;28;21073;-76
2022/09/07 18:02:24;;;;;;;2.93;2.20;;;28.80;28.90;;;;;;10552328;28;20430;-76
2022/09/07 18:07:27;;;;;;;2.87;1.93;;;28.70;29.20;;;;;;10552221;27;20225;-76
2022/09/07 18:12:30;;;;;;;4.60;2.20;;;28.50;29.40;;;;;;10554246;28;20781;-76
2022/09/07 18:17:36;;;;;;;3.17;2.23;;;28.40;29.30;;;;;;10550851;28;20226;-76
2022/09/07 18:22:39;;;;;;;3.03;2.20;;;28.30;29.60;;;;;;10551357;27;20272;-75
2022/09/07 18:27:43;;;;;;;3.07;2.23;;;28.00;29.70;;;;;;10549093;27;20235;-77
2022/09/07 18:32:49;;;;;;;2.60;2.23;;;27.90;30.10;;;;;;10552474;28;20231;-75
2022/09/07 18:37:53;;;;;;;3.53;2.00;;;27.70;30.00;;;;;;10549581;28;20223;-75
2022/09/07 18:42:56;;;;;;;3.73;2.07;;;27.50;30.00;;;;;;10548244;28;20280;-75
2022/09/07 18:48:00;;;;;;;2.17;1.93;;;27.40;29.90;;;;;;10546722;28;20640;-73
2022/09/07 18:53:04;;;;;;;2.37;2.17;;;27.20;30.00;;;;;;10550412;28;20222;-75
2022/09/07 18:58:18;;;;;;;3.97;2.50;;;27.00;30.20;;;;;;10551134;27;20222;-75
2022/09/07 19:03:23;;;;;;;3.07;2.17;;;26.90;30.40;;;;;;10550262;27;20246;-74
2022/09/07 19:08:30;;;;;;;3.20;2.87;;;26.70;30.60;;;;;;10548472;27;20230;-76
2022/09/07 19:13:34;;;;;;;3.20;2.90;;;26.60;31.10;;;;;;10548165;28;20253;-76
2022/09/07 19:18:40;;;;;;;3.33;3.03;;;26.50;31.00;;;;;;10548705;28;20250;-73
2022/09/07 19:23:43;;;;;;;3.00;2.80;;;26.30;31.50;;;;;;10547498;28;20227;-74
2022/09/07 19:28:50;;;;;;;2.93;2.73;;;26.20;32.10;;;;;;10551830;27;20245;-73
2022/09/07 19:33:56;;;;;;;2.87;2.50;;;26.10;31.80;;;;;;10548164;28;20229;-73
2022/09/07 19:39:00;;;;;;;4.50;3.37;;;26.00;32.10;;;;;;10549807;28;20269;-73
2022/09/07 19:44:03;;;;;;;3.93;3.13;;;25.90;31.70;;;;;;10554355;27;20627;-74
2022/09/07 19:49:10;;;;;;;3.50;3.13;;;25.70;31.80;;;;;;10549513;27;20215;-73
2022/09/07 19:54:14;;;;;;;3.43;3.03;;;25.50;32.30;;;;;;10545390;27;20795;-73
2022/09/07 19:59:18;;;;;;;3.40;3.10;;;25.40;32.50;;;;;;10546236;28;20229;-74
2022/09/07 20:04:23;;;;;;;4.97;3.43;;;25.20;32.80;;;;;;10542365;27;20237;-73
2022/09/07 20:09:26;;;;;;;3.57;3.27;;;25.10;33.30;;;;;;10544634;27;20226;-72
2022/09/07 20:14:29;;;;;;;4.53;3.40;;;25.00;33.00;;;;;;10542914;27;20902;-73
2022/09/07 20:19:34;;;;;;;3.60;3.30;;;24.90;33.30;;;;;;10542221;27;20242;-74
2022/09/07 20:24:37;;;;;;;3.83;3.10;;;24.80;33.70;;;;;;10546421;27;20230;-73
2022/09/07 20:29:40;;;;;;;6.37;3.70;;;24.80;33.40;;;;;;10542414;27;20273;-74
2022/09/07 20:34:45;;;;;;;4.57;3.70;;;24.70;33.80;;;;;;10544241;28;20812;-74
2022/09/07 20:39:48;;;;;;;4.17;3.80;;;24.70;34.60;;;;;;10544266;27;20227;-74
2022/09/07 20:44:52;;;;;;;4.27;3.83;;;24.70;34.20;;;;;;10546063;27;20223;-74
2022/09/07 20:49:56;;;;;;;4.30;3.90;;;24.60;34.30;;;;;;10544594;28;20991;-74
2022/09/07 20:55:00;;;;;;;3.73;3.47;;;24.50;34.70;;;;;;10542709;28;21247;-74
2022/09/07 21:00:03;;;;;;;4.17;3.77;;;24.50;34.50;;;;;;10542474;27;20223;-74
2022/09/07 21:05:09;;;;;;;3.93;3.60;;;24.40;34.60;;;;;;10542117;28;20424;-75
2022/09/07 21:10:13;;;;;;;3.63;3.33;;;24.30;35.20;;;;;;10544817;27;20649;-75
2022/09/07 21:15:16;;;;;;;5.13;3.73;;;24.30;34.90;;;;;;10547605;27;20271;-74
2022/09/07 21:20:21;;;;;;;6.50;4.13;;;24.20;35.00;;;;;;10544600;28;20226;-74
2022/09/07 21:25:24;;;;;;;4.57;4.17;;;24.20;35.50;;;;;;10540485;27;20242;-74
2022/09/07 21:30:27;;;;;;;4.97;4.20;;;24.10;35.30;;;;;;10553403;27;20222;-74
2022/09/07 21:35:34;;;;;;;3.67;3.37;;;24.00;35.50;;;;;;10556153;27;20239;-74
2022/09/07 21:40:40;;;;;;;4.60;3.40;;;24.00;36.20;;;;;;10546275;28;20223;-74
2022/09/07 21:45:43;;;;;;;4.43;3.67;;;24.00;36.20;;;;;;10557562;28;20242;-74
2022/09/07 21:50:48;;;;;;;4.50;3.77;;;24.00;35.80;;;;;;10552629;27;20219;-74
2022/09/07 21:55:55;;;;;;;4.67;3.77;;;24.00;36.10;;;;;;10557028;27;20231;-74
2022/09/07 22:01:00;;;;;;;4.93;4.10;;;24.00;36.70;;;;;;10555946;27;20238;-74
2022/09/07 22:06:05;;;;;;;4.20;3.80;;;24.00;36.00;;;;;;10551706;28;20220;-74
2022/09/07 22:11:10;;;;;;;4.73;4.00;;;24.00;36.30;;;;;;10554469;27;20219;-74
2022/09/07 22:16:14;;;;;;;3.90;3.60;;;23.90;36.30;;;;;;10561666;27;20272;-74
2022/09/07 22:21:21;;;;;;;4.63;3.70;;;23.90;36.10;;;;;;10555360;27;20718;-74
2022/09/07 22:26:26;;;;;;;4.20;3.83;;;24.00;37.10;;;;;;10550375;28;20314;-74
2022/09/07 22:31:30;;;;;;;5.50;3.80;;;23.90;36.80;;;;;;10548524;27;20230;-74
2022/09/07 22:36:37;;;;;;;4.57;4.17;;;23.90;36.70;;;;;;10547846;28;20376;-74
2022/09/07 22:41:40;;;;;;;4.90;4.50;;;23.80;37.20;;;;;;10548825;28;20219;-74
2022/09/07 22:46:45;;;;;;;4.27;3.87;;;23.80;36.90;;;;;;10546979;28;20238;-74
2022/09/07 22:51:50;;;;;;;4.37;3.97;;;23.80;37.30;;;;;;10545814;27;20238;-74
2022/09/07 22:56:53;;;;;;;7.50;4.67;;;23.70;37.50;;;;;;10550127;27;20226;-74
2022/09/07 23:01:56;;;;;;;3.20;2.90;;;23.70;37.10;;;;;;10542258;28;20268;-74
2022/09/07 23:07:01;;;;;;;3.63;2.40;;;23.60;37.10;;;;;;10552576;27;20821;-74
2022/09/07 23:12:04;;;;;;;2.20;2.00;;;23.50;37.80;;;;;;10551280;27;20241;-73
2022/09/07 23:17:07;;;;;;;2.00;1.60;;;23.40;37.80;;;;;;10563454;28;20239;-74
2022/09/07 23:22:11;;;;;;;2.50;1.73;;;23.30;38.10;;;;;;10563385;27;20258;-75
2022/09/07 23:27:14;;;;;;;4.37;1.80;;;23.30;39.40;;;;;;10561072;28;20223;-75
2022/09/07 23:32:18;;;;;;;1.77;1.50;;;23.20;39.30;;;;;;10561101;27;20226;-75
2022/09/07 23:37:22;;;;;;;1.97;1.70;;;23.10;39.20;;;;;;10559762;27;20757;-75
2022/09/07 23:42:25;;;;;;;3.20;1.90;;;22.90;39.60;;;;;;10550308;27;20231;-75
2022/09/07 23:47:29;;;;;;;3.97;2.30;;;22.70;39.30;;;;;;10558797;28;20288;-75
2022/09/07 23:52:33;;;;;;;3.17;2.10;;;22.50;41.40;;;;;;10555811;27;20241;-75
2022/09/07 23:57:37;;;;;;;2.73;2.00;;;22.30;41.90;;;;;;10554096;27;20625;-75
